Time;durP1;ratioP1;P1;durP2;ratioP2;P2;SDS_P1;SDS_P2;PMS_P1;PMS_P2;Temp;Humidity;BMP_temperature;BMP_pressure;BME280_temperature;BME280_humidity;BME280_pressure;Samples;Min_cycle;Max_cycle;Signal;HPM_P1;HPM_P2
2022/08/06 00:00:25;;;;;;;8.20;4.53;;;;;;;;;;5112015;27;20827;-62
2022/08/06 00:03:43;;;;;;;7.03;3.40;;;;;;;;;;5112040;27;20962;-62
2022/08/06 00:06:09;;;;;;;6.90;3.88;;;;;;;;;;5111044;28;20024;-62
2022/08/06 00:10:09;;;;;;;5.45;3.00;;;;;;;;;;5111994;27;20458;-62
2022/08/06 00:12:36;;;;;;;6.38;3.88;;;;;;;;;;5110891;28;20069;-62
2022/08/06 00:16:22;;;;;;;4.70;3.15;;;;;;;;;;5111916;27;20462;-63
2022/08/06 00:18:48;;;;;;;4.57;3.03;;;;;;;;;;5111015;28;20023;-63
2022/08/06 00:22:32;;;;;;;4.40;2.88;;;;;;;;;;5111856;27;20381;-63
2022/08/06 00:25:19;;;;;;;4.30;2.80;;;;;;;;;;5111951;27;20720;-65
2022/08/06 00:28:27;;;;;;;7.60;3.10;;;;;;;;;;5111683;27;20113;-63
2022/08/06 00:31:10;;;;;;;6.45;3.17;;;;;;;;;;5112002;27;20420;-64
2022/08/06 00:35:13;;;;;;;5.13;3.20;;;;;;;;;;5111025;27;20416;-63
2022/08/06 00:37:39;;;;;;;5.63;2.75;;;;;;;;;;5127183;28;20051;-64
2022/08/06 00:40:05;;;;;;;4.80;2.60;;;;;;;;;;5110940;28;20023;-64
2022/08/06 00:44:49;;;;;;;6.30;2.95;;;;;;;;;;5111378;27;20396;-65
2022/08/06 00:50:04;;;;;;;7.25;4.10;;;;;;;;;;5111606;27;20481;-63
2022/08/06 00:52:31;;;;;;;5.88;3.92;;;;;;;;;;5111362;28;20023;-63
2022/08/06 00:54:57;;;;;;;4.75;3.13;;;;;;;;;;5111082;28;20035;-62
2022/08/06 00:57:23;;;;;;;7.22;3.90;;;;;;;;;;5111262;28;20019;-63
2022/08/06 01:00:53;;;;;;;5.68;3.60;;;;;;;;;;5111615;27;20481;-62
2022/08/06 01:03:19;;;;;;;5.20;2.92;;;;;;;;;;5126985;28;20020;-62
2022/08/06 01:05:45;;;;;;;4.00;2.80;;;;;;;;;;5127212;28;20023;-62
2022/08/06 01:08:13;;;;;;;5.70;3.10;;;;;;;;;;5126737;28;20020;-62
2022/08/06 01:10:39;;;;;;;5.00;3.05;;;;;;;;;;5127294;28;20027;-64
2022/08/06 01:13:06;;;;;;;4.75;3.22;;;;;;;;;;5111251;28;20055;-63
2022/08/06 01:16:25;;;;;;;5.65;3.20;;;;;;;;;;5111257;27;20454;-62
2022/08/06 01:19:01;;;;;;;6.63;4.00;;;;;;;;;;5111534;28;20410;-62
2022/08/06 01:21:30;;;;;;;5.47;3.60;;;;;;;;;;5110101;28;20023;-62
2022/08/06 01:24:12;;;;;;;6.82;3.65;;;;;;;;;;5110863;28;20023;-62
2022/08/06 01:26:48;;;;;;;5.55;2.97;;;;;;;;;;5111232;28;20020;-62
2022/08/06 01:29:27;;;;;;;6.82;3.10;;;;;;;;;;5110893;28;20463;-62
2022/08/06 01:31:56;;;;;;;5.78;3.22;;;;;;;;;;5111310;28;20020;-62
2022/08/06 01:34:28;;;;;;;6.65;3.60;;;;;;;;;;5110980;28;20032;-62
2022/08/06 01:37:02;;;;;;;5.72;3.50;;;;;;;;;;5110631;28;20197;-63
2022/08/06 01:42:54;;;;;;;5.88;3.55;;;;;;;;;;5071048;28;20459;-62
2022/08/06 01:45:21;;;;;;;6.07;3.58;;;;;;;;;;5069215;28;20455;-66
2022/08/06 01:47:50;;;;;;;6.20;3.50;;;;;;;;;;5070717;28;20013;-63
2022/08/06 01:50:18;;;;;;;5.32;3.30;;;;;;;;;;5068966;28;20024;-62
2022/08/06 01:54:52;;;;;;;5.93;3.35;;;;;;;;;;5111890;27;20847;-62
2022/08/06 01:57:19;;;;;;;7.05;3.15;;;;;;;;;;5110978;28;20062;-62
2022/08/06 01:59:47;;;;;;;4.30;2.70;;;;;;;;;;5111315;28;20028;-64
2022/08/06 02:02:21;;;;;;;5.80;3.40;;;;;;;;;;5111250;28;20077;-62
2022/08/06 02:07:53;;;;;;;7.55;4.18;;;;;;;;;;5111843;27;20423;-62
2022/08/06 02:10:22;;;;;;;6.78;3.33;;;;;;;;;;5111366;28;20027;-62
2022/08/06 02:12:48;;;;;;;5.55;3.78;;;;;;;;;;5110938;28;20020;-62
2022/08/06 02:15:20;;;;;;;6.78;3.80;;;;;;;;;;5110000;28;20106;-62
2022/08/06 02:17:54;;;;;;;8.73;4.13;;;;;;;;;;5111202;28;20031;-62
2022/08/06 02:21:04;;;;;;;7.93;5.00;;;;;;;;;;5111445;27;20420;-62
2022/08/06 02:25:05;;;;;;;8.18;5.32;;;;;;;;;;5112155;27;20730;-62
2022/08/06 02:27:33;;;;;;;9.40;5.60;;;;;;;;;;5110982;28;20020;-63
2022/08/06 02:33:33;;;;;;;10.70;5.78;;;;;;;;;;5070836;28;20414;-63
2022/08/06 02:41:35;;;;;;;9.20;6.13;;;;;;;;;;5111185;27;20393;-63
2022/08/06 02:44:07;;;;;;;11.18;6.60;;;;;;;;;;5111495;28;20024;-63
2022/08/06 02:46:44;;;;;;;9.43;6.07;;;;;;;;;;5110994;28;20012;-63
2022/08/06 02:51:41;;;;;;;9.13;4.95;;;;;;;;;;5111953;27;20749;-62
2022/08/06 02:54:11;;;;;;;10.45;6.32;;;;;;;;;;5109689;28;20198;-62
2022/08/06 02:56:40;;;;;;;9.20;6.25;;;;;;;;;;5111369;28;20115;-62
2022/08/06 02:59:07;;;;;;;10.02;6.10;;;;;;;;;;5111372;28;20031;-62
2022/08/06 03:01:35;;;;;;;10.00;6.70;;;;;;;;;;5110757;28;20024;-62
2022/08/06 03:04:48;;;;;;;8.65;5.30;;;;;;;;;;5111908;27;20420;-63
2022/08/06 03:07:16;;;;;;;8.77;4.97;;;;;;;;;;5111509;28;20097;-63
2022/08/06 03:11:14;;;;;;;9.68;4.60;;;;;;;;;;5111691;27;20400;-62
2022/08/06 03:13:41;;;;;;;8.82;4.65;;;;;;;;;;5111289;28;20085;-61
2022/08/06 03:16:09;;;;;;;9.57;4.35;;;;;;;;;;5110846;28;20094;-63
2022/08/06 03:18:37;;;;;;;6.95;3.97;;;;;;;;;;5111528;28;20081;-62
2022/08/06 03:24:45;;;;;;;9.70;4.35;;;;;;;;;;5173905;27;20362;-62
2022/08/06 03:27:12;;;;;;;7.88;3.90;;;;;;;;;;5152543;27;20031;-62
2022/08/06 03:38:19;;;;;;;5.78;3.53;;;;;;;;;;5111793;27;20396;-62
2022/08/06 03:41:09;;;;;;;10.02;4.72;;;;;;;;;;5111502;27;20388;-62
2022/08/06 03:48:13;;;;;;;10.02;5.35;;;;;;;;;;5111399;27;20958;-62
2022/08/06 03:50:43;;;;;;;9.98;5.38;;;;;;;;;;5110967;28;20028;-62
2022/08/06 03:54:26;;;;;;;11.07;7.05;;;;;;;;;;5111302;27;20923;-62
2022/08/06 03:56:53;;;;;;;14.70;7.05;;;;;;;;;;5110963;28;20020;-62
2022/08/06 03:59:21;;;;;;;10.48;6.35;;;;;;;;;;5127033;28;20077;-62
2022/08/06 04:01:47;;;;;;;8.23;4.78;;;;;;;;;;5111381;28;20020;-63
2022/08/06 04:04:15;;;;;;;6.95;3.95;;;;;;;;;;5110829;28;20028;-63
2022/08/06 04:06:42;;;;;;;6.47;4.00;;;;;;;;;;5111164;28;20383;-63
2022/08/06 04:09:09;;;;;;;7.00;3.97;;;;;;;;;;5109986;28;20020;-63
2022/08/06 04:11:48;;;;;;;8.00;3.55;;;;;;;;;;5111154;27;20393;-62
2022/08/06 04:15:05;;;;;;;5.80;3.53;;;;;;;;;;5111435;27;20427;-62
2022/08/06 04:17:32;;;;;;;7.40;4.22;;;;;;;;;;5111391;28;20027;-62
2022/08/06 04:23:12;;;;;;;6.60;3.55;;;;;;;;;;5111897;27;20450;-62
2022/08/06 04:26:04;;;;;;;10.15;4.00;;;;;;;;;;5109651;28;20417;-62
2022/08/06 04:28:31;;;;;;;9.90;3.80;;;;;;;;;;5108439;28;20064;-62
2022/08/06 04:30:58;;;;;;;5.88;3.63;;;;;;;;;;5111237;28;20035;-62
2022/08/06 04:35:41;;;;;;;6.68;4.20;;;;;;;;;;5111701;27;20447;-62
2022/08/06 04:41:28;;;;;;;8.40;4.43;;;;;;;;;;5111731;27;20923;-62
2022/08/06 04:43:54;;;;;;;8.20;4.65;;;;;;;;;;5111342;28;20024;-62
2022/08/06 04:46:21;;;;;;;6.95;3.92;;;;;;;;;;5109632;28;20539;-62
2022/08/06 04:48:48;;;;;;;8.90;5.13;;;;;;;;;;5110013;28;20043;-62
2022/08/06 04:52:22;;;;;;;12.57;4.60;;;;;;;;;;5111495;27;20901;-62
2022/08/06 04:55:55;;;;;;;10.00;4.53;;;;;;;;;;5112000;27;20396;-62
2022/08/06 04:58:52;;;;;;;7.35;4.40;;;;;;;;;;5111918;27;20447;-62
2022/08/06 05:02:25;;;;;;;7.75;4.53;;;;;;;;;;5111235;27;20799;-62
2022/08/06 05:04:55;;;;;;;6.78;4.50;;;;;;;;;;5111342;28;20102;-62
2022/08/06 05:07:48;;;;;;;8.20;4.47;;;;;;;;;;5111488;27;20384;-63
2022/08/06 05:11:41;;;;;;;10.07;5.43;;;;;;;;;;5111744;27;20840;-62
2022/08/06 05:16:33;;;;;;;7.82;4.95;;;;;;;;;;5071185;28;20445;-62
2022/08/06 05:22:44;;;;;;;8.00;4.50;;;;;;;;;;5111257;27;20431;-62
2022/08/06 05:25:10;;;;;;;10.75;6.20;;;;;;;;;;5111602;28;20440;-62
2022/08/06 05:27:36;;;;;;;11.63;5.93;;;;;;;;;;5111261;28;20027;-62
2022/08/06 05:30:06;;;;;;;7.60;5.00;;;;;;;;;;5109539;28;20092;-62
2022/08/06 05:32:32;;;;;;;10.68;6.00;;;;;;;;;;5111301;28;20114;-62
2022/08/06 05:34:58;;;;;;;13.70;6.68;;;;;;;;;;5111609;28;20071;-62
2022/08/06 05:39:19;;;;;;;9.35;5.10;;;;;;;;;;5111516;27;20420;-62
2022/08/06 05:42:15;;;;;;;11.85;4.95;;;;;;;;;;5111502;27;20462;-62
2022/08/06 05:44:41;;;;;;;8.10;4.82;;;;;;;;;;5127307;28;20028;-62
2022/08/06 05:48:29;;;;;;;7.60;4.55;;;;;;;;;;5111343;27;20412;-62
2022/08/06 05:51:03;;;;;;;9.20;5.10;;;;;;;;;;5127032;28;20027;-62
2022/08/06 05:53:31;;;;;;;6.28;4.13;;;;;;;;;;5127138;28;20047;-62
2022/08/06 05:56:00;;;;;;;8.65;4.97;;;;;;;;;;5111248;28;20023;-62
2022/08/06 06:00:18;;;;;;;8.00;5.10;;;;;;;;;;5111506;27;20928;-62
2022/08/06 06:02:45;;;;;;;8.73;5.50;;;;;;;;;;5111533;28;20085;-62
2022/08/06 06:06:31;;;;;;;7.82;5.22;;;;;;;;;;5111451;27;20400;-62
2022/08/06 06:08:58;;;;;;;7.05;4.32;;;;;;;;;;5111331;28;20081;-62
2022/08/06 06:11:25;;;;;;;8.55;4.82;;;;;;;;;;5111146;28;20024;-62
2022/08/06 06:13:51;;;;;;;10.23;5.57;;;;;;;;;;5111817;28;20027;-62
2022/08/06 06:16:36;;;;;;;7.07;4.35;;;;;;;;;;5111182;28;20488;-64
2022/08/06 06:20:15;;;;;;;8.52;4.50;;;;;;;;;;5111911;27;20397;-62
2022/08/06 06:22:49;;;;;;;7.30;3.97;;;;;;;;;;5111402;28;20111;-63
2022/08/06 06:27:01;;;;;;;6.68;4.13;;;;;;;;;;5111318;27;20430;-62
2022/08/06 06:29:35;;;;;;;7.47;3.88;;;;;;;;;;5111655;28;20020;-62
2022/08/06 06:33:56;;;;;;;6.15;3.53;;;;;;;;;;5131374;27;20843;-62
2022/08/06 06:36:48;;;;;;;6.18;3.28;;;;;;;;;;5111372;28;20103;-63
2022/08/06 06:42:03;;;;;;;5.75;3.33;;;;;;;;;;5111769;27;20428;-62
2022/08/06 06:45:05;;;;;;;6.72;3.20;;;;;;;;;;5111644;27;20449;-62
2022/08/06 06:47:57;;;;;;;7.45;3.22;;;;;;;;;;5109612;28;20537;-62
2022/08/06 06:50:25;;;;;;;7.50;3.27;;;;;;;;;;5079907;28;20371;-62
2022/08/06 06:52:52;;;;;;;5.85;3.13;;;;;;;;;;5110827;28;20382;-63
2022/08/06 06:56:53;;;;;;;9.07;3.53;;;;;;;;;;5111657;27;20462;-62
2022/08/06 06:59:23;;;;;;;6.05;3.13;;;;;;;;;;5111306;28;20373;-62
2022/08/06 07:01:49;;;;;;;5.40;3.10;;;;;;;;;;5109489;28;20050;-62
2022/08/06 07:04:17;;;;;;;5.95;3.05;;;;;;;;;;5111350;28;20074;-63
2022/08/06 07:07:31;;;;;;;4.70;2.85;;;;;;;;;;5110998;27;20428;-62
2022/08/06 07:09:57;;;;;;;6.75;3.15;;;;;;;;;;5111238;28;20099;-63
2022/08/06 07:12:25;;;;;;;4.63;2.65;;;;;;;;;;5127019;28;20024;-63
2022/08/06 07:14:52;;;;;;;4.00;2.65;;;;;;;;;;5110793;28;20016;-63
2022/08/06 07:17:19;;;;;;;5.38;3.38;;;;;;;;;;5111506;28;20027;-62
2022/08/06 07:19:47;;;;;;;4.80;2.70;;;;;;;;;;5126989;28;20031;-63
2022/08/06 07:22:13;;;;;;;5.47;2.80;;;;;;;;;;5110568;28;20043;-62
2022/08/06 07:24:41;;;;;;;4.60;2.85;;;;;;;;;;5111036;28;20024;-62
2022/08/06 07:27:08;;;;;;;3.65;2.33;;;;;;;;;;5110916;28;20070;-64
2022/08/06 07:29:35;;;;;;;5.13;2.92;;;;;;;;;;5110574;28;20020;-63
2022/08/06 07:32:02;;;;;;;4.28;2.70;;;;;;;;;;5126587;28;20031;-63
2022/08/06 07:34:29;;;;;;;4.38;2.58;;;;;;;;;;5110843;28;20035;-63
2022/08/06 07:36:56;;;;;;;6.63;3.88;;;;;;;;;;5110433;28;20024;-63
2022/08/06 07:39:24;;;;;;;4.50;2.70;;;;;;;;;;5126629;28;20016;-63
2022/08/06 07:41:51;;;;;;;4.53;2.53;;;;;;;;;;5110584;28;20023;-63
2022/08/06 07:44:18;;;;;;;6.28;2.80;;;;;;;;;;5110693;28;20020;-63
2022/08/06 07:48:55;;;;;;;5.65;2.92;;;;;;;;;;5070513;28;20452;-63
2022/08/06 07:51:23;;;;;;;4.10;2.70;;;;;;;;;;5069484;28;20473;-63
2022/08/06 07:53:50;;;;;;;4.07;2.40;;;;;;;;;;5070723;28;20438;-62
2022/08/06 07:56:17;;;;;;;4.43;2.67;;;;;;;;;;5070628;28;20021;-62
2022/08/06 07:58:44;;;;;;;3.38;2.35;;;;;;;;;;5069376;28;20120;-63
2022/08/06 08:01:11;;;;;;;3.75;2.40;;;;;;;;;;5070670;28;20031;-63
2022/08/06 08:06:23;;;;;;;5.45;2.97;;;;;;;;;;5070548;28;20032;-63
2022/08/06 08:08:51;;;;;;;4.20;2.65;;;;;;;;;;5069144;28;20473;-64
2022/08/06 08:11:18;;;;;;;4.65;2.60;;;;;;;;;;5070144;28;20024;-63
2022/08/06 08:13:44;;;;;;;6.15;2.60;;;;;;;;;;5070577;28;20112;-63
2022/08/06 08:16:15;;;;;;;7.38;2.55;;;;;;;;;;5070330;28;20021;-63
2022/08/06 08:18:41;;;;;;;5.28;2.67;;;;;;;;;;5069880;28;20031;-64
2022/08/06 08:21:09;;;;;;;6.47;2.88;;;;;;;;;;5070198;28;20129;-64
2022/08/06 08:23:36;;;;;;;4.00;2.70;;;;;;;;;;5070172;28;20024;-63
2022/08/06 08:26:03;;;;;;;4.10;2.60;;;;;;;;;;5069785;28;20024;-64
2022/08/06 08:28:30;;;;;;;5.03;2.97;;;;;;;;;;5070014;28;20130;-64
2022/08/06 08:31:01;;;;;;;5.25;2.97;;;;;;;;;;5070063;28;20025;-64
2022/08/06 08:33:28;;;;;;;4.47;2.40;;;;;;;;;;5070137;28;20031;-64
2022/08/06 08:35:54;;;;;;;4.95;2.83;;;;;;;;;;5070079;28;20031;-64
2022/08/06 08:38:20;;;;;;;3.53;2.33;;;;;;;;;;5069437;28;20139;-64
2022/08/06 08:40:48;;;;;;;3.90;2.58;;;;;;;;;;5068547;28;20021;-65
2022/08/06 08:43:18;;;;;;;3.95;2.30;;;;;;;;;;5069783;28;20029;-64
2022/08/06 08:45:45;;;;;;;3.47;2.30;;;;;;;;;;5069279;28;20025;-64
2022/08/06 08:48:11;;;;;;;5.22;3.10;;;;;;;;;;5069353;28;20578;-63
2022/08/06 08:50:38;;;;;;;6.07;2.70;;;;;;;;;;5069476;28;20021;-64
2022/08/06 08:53:09;;;;;;;3.30;2.40;;;;;;;;;;5069092;28;20449;-64
2022/08/06 08:55:35;;;;;;;3.83;2.50;;;;;;;;;;5068131;28;20501;-63
2022/08/06 08:58:02;;;;;;;3.95;2.67;;;;;;;;;;5068599;28;20384;-63
2022/08/06 09:00:29;;;;;;;4.68;2.78;;;;;;;;;;5055575;28;20032;-62
2022/08/06 09:02:56;;;;;;;5.15;2.75;;;;;;;;;;5056152;28;20523;-63
2022/08/06 09:05:22;;;;;;;4.25;2.58;;;;;;;;;;5056034;28;20032;-63
2022/08/06 09:07:49;;;;;;;6.43;2.50;;;;;;;;;;5055583;28;20037;-63
2022/08/06 09:10:15;;;;;;;5.88;2.67;;;;;;;;;;5055940;28;20063;-63
2022/08/06 09:12:42;;;;;;;4.68;2.72;;;;;;;;;;5056010;28;20025;-64
2022/08/06 09:15:09;;;;;;;3.95;2.90;;;;;;;;;;5055509;28;20021;-64
2022/08/06 09:17:35;;;;;;;3.30;2.45;;;;;;;;;;5054511;28;20028;-64
2022/08/06 09:20:01;;;;;;;5.28;2.33;;;;;;;;;;5055912;28;20482;-63
2022/08/06 09:22:27;;;;;;;4.15;2.40;;;;;;;;;;5055273;28;20366;-63
2022/08/06 09:24:54;;;;;;;5.28;2.78;;;;;;;;;;5054474;28;20025;-63
2022/08/06 09:27:20;;;;;;;4.80;2.85;;;;;;;;;;5055166;28;20440;-63
2022/08/06 09:29:53;;;;;;;6.10;2.90;;;;;;;;;;5054263;28;20444;-62
2022/08/06 09:32:38;;;;;;;4.03;2.67;;;;;;;;;;5055520;28;20017;-62
2022/08/06 09:35:17;;;;;;;5.63;2.80;;;;;;;;;;5055137;28;20049;-64
2022/08/06 09:37:44;;;;;;;4.97;2.90;;;;;;;;;;5055406;28;20027;-63
2022/08/06 09:40:14;;;;;;;5.53;3.13;;;;;;;;;;5054090;28;20385;-63
2022/08/06 09:42:41;;;;;;;5.53;3.10;;;;;;;;;;5054997;28;20021;-63
2022/08/06 09:45:08;;;;;;;4.50;2.65;;;;;;;;;;5055495;28;20040;-64
2022/08/06 09:47:36;;;;;;;5.68;3.47;;;;;;;;;;5055324;28;20041;-62
2022/08/06 09:50:03;;;;;;;4.75;2.72;;;;;;;;;;5054929;28;20021;-62
2022/08/06 09:52:29;;;;;;;4.82;2.80;;;;;;;;;;5055178;28;20020;-64
2022/08/06 09:54:55;;;;;;;4.95;2.90;;;;;;;;;;5053931;28;20488;-62
2022/08/06 09:57:25;;;;;;;4.43;2.63;;;;;;;;;;5054674;28;20037;-63
2022/08/06 09:59:51;;;;;;;4.15;2.85;;;;;;;;;;5053660;28;20024;-63
2022/08/06 10:02:18;;;;;;;4.93;3.08;;;;;;;;;;5054982;28;20025;-63
2022/08/06 10:04:45;;;;;;;5.25;3.05;;;;;;;;;;5053361;28;20021;-63
2022/08/06 10:07:11;;;;;;;9.80;3.75;;;;;;;;;;5054824;28;20053;-63
2022/08/06 10:09:51;;;;;;;4.75;2.90;;;;;;;;;;5054361;28;20174;-63
2022/08/06 10:12:18;;;;;;;5.53;2.78;;;;;;;;;;5054454;28;20017;-63
2022/08/06 10:14:45;;;;;;;5.38;2.90;;;;;;;;;;5053514;28;20028;-64
2022/08/06 10:17:12;;;;;;;4.45;2.90;;;;;;;;;;5053101;28;20022;-63
2022/08/06 10:19:39;;;;;;;5.22;3.05;;;;;;;;;;5054664;28;20509;-63
2022/08/06 10:22:07;;;;;;;4.95;2.67;;;;;;;;;;5054573;28;20028;-63
2022/08/06 10:24:38;;;;;;;3.53;2.50;;;;;;;;;;5054353;28;20032;-63
2022/08/06 10:27:06;;;;;;;4.60;2.63;;;;;;;;;;5054499;28;20112;-63
2022/08/06 10:29:34;;;;;;;3.80;2.85;;;;;;;;;;5054499;28;20020;-63
2022/08/06 10:32:01;;;;;;;4.38;2.72;;;;;;;;;;5052766;28;20025;-63
2022/08/06 10:34:27;;;;;;;3.53;2.40;;;;;;;;;;5054435;28;20104;-64
2022/08/06 10:37:07;;;;;;;4.07;2.63;;;;;;;;;;5053103;28;20025;-63
2022/08/06 10:39:39;;;;;;;3.90;2.60;;;;;;;;;;5052677;28;20036;-64
2022/08/06 10:42:05;;;;;;;3.90;2.53;;;;;;;;;;5054326;28;20025;-64
2022/08/06 10:44:34;;;;;;;7.70;2.65;;;;;;;;;;5054557;28;20044;-64
2022/08/06 10:47:01;;;;;;;4.60;2.65;;;;;;;;;;5053535;28;20045;-64
2022/08/06 10:49:27;;;;;;;5.28;2.50;;;;;;;;;;5052814;28;20028;-63
2022/08/06 10:51:54;;;;;;;3.50;2.33;;;;;;;;;;5053692;28;20028;-64
2022/08/06 10:54:20;;;;;;;3.38;2.47;;;;;;;;;;5052756;28;20028;-64
2022/08/06 10:56:47;;;;;;;8.48;2.33;;;;;;;;;;5054233;28;20021;-65
2022/08/06 10:59:14;;;;;;;4.25;2.35;;;;;;;;;;5053531;28;20021;-64
2022/08/06 11:01:58;;;;;;;3.30;2.08;;;;;;;;;;5053967;28;20033;-63
2022/08/06 11:04:43;;;;;;;5.38;2.45;;;;;;;;;;5053838;28;20489;-64
2022/08/06 11:07:12;;;;;;;5.65;2.30;;;;;;;;;;5052105;28;20029;-64
2022/08/06 11:09:57;;;;;;;3.72;2.03;;;;;;;;;;5053876;28;20063;-64
2022/08/06 11:12:29;;;;;;;3.08;2.15;;;;;;;;;;5053674;28;20056;-64
2022/08/06 11:14:56;;;;;;;3.92;2.47;;;;;;;;;;5053291;28;20397;-64
2022/08/06 11:17:22;;;;;;;4.80;2.60;;;;;;;;;;5053674;28;20363;-64
2022/08/06 11:19:49;;;;;;;3.63;2.38;;;;;;;;;;5053452;28;20469;-64
2022/08/06 11:22:34;;;;;;;4.40;2.50;;;;;;;;;;5053325;28;20466;-64
2022/08/06 11:25:08;;;;;;;6.43;2.30;;;;;;;;;;5053577;28;20146;-64
2022/08/06 11:27:50;;;;;;;4.65;2.53;;;;;;;;;;5053594;28;20040;-64
2022/08/06 11:30:16;;;;;;;3.90;2.35;;;;;;;;;;5053535;28;20071;-64
2022/08/06 11:32:43;;;;;;;3.80;2.55;;;;;;;;;;5052225;28;20033;-64
2022/08/06 11:35:29;;;;;;;4.60;2.47;;;;;;;;;;5053044;28;20032;-64
2022/08/06 11:37:55;;;;;;;3.60;2.50;;;;;;;;;;5049672;28;20091;-64
2022/08/06 11:40:22;;;;;;;3.45;2.63;;;;;;;;;;5053370;28;20029;-64
2022/08/06 11:42:48;;;;;;;3.60;2.53;;;;;;;;;;5051685;28;20436;-64
2022/08/06 11:45:14;;;;;;;3.85;2.50;;;;;;;;;;5053327;28;20028;-63
2022/08/06 11:47:59;;;;;;;3.50;2.03;;;;;;;;;;5053038;28;20049;-63
2022/08/06 11:50:25;;;;;;;3.60;2.10;;;;;;;;;;5053019;28;20028;-63
2022/08/06 11:52:51;;;;;;;4.13;2.10;;;;;;;;;;5053188;28;20079;-63
2022/08/06 11:55:17;;;;;;;3.83;2.30;;;;;;;;;;5051544;28;20116;-63
2022/08/06 11:57:43;;;;;;;2.65;2.00;;;;;;;;;;5053220;28;20025;-64
2022/08/06 12:00:13;;;;;;;4.72;2.28;;;;;;;;;;5053187;28;20025;-64
2022/08/06 12:02:40;;;;;;;3.58;2.30;;;;;;;;;;5051858;28;20108;-63
2022/08/06 12:05:07;;;;;;;3.30;2.05;;;;;;;;;;5053379;28;20032;-63
2022/08/06 12:07:36;;;;;;;4.97;2.17;;;;;;;;;;5051808;28;20083;-63
2022/08/06 12:10:02;;;;;;;2.35;1.75;;;;;;;;;;5052811;28;20021;-63
2022/08/06 12:12:32;;;;;;;3.55;2.05;;;;;;;;;;5051803;28;20075;-63
2022/08/06 12:15:13;;;;;;;3.40;2.05;;;;;;;;;;5053029;28;20025;-63
2022/08/06 12:17:40;;;;;;;3.90;2.30;;;;;;;;;;5052863;28;20029;-64
2022/08/06 12:20:07;;;;;;;3.15;2.25;;;;;;;;;;5052993;28;20025;-64
2022/08/06 12:22:34;;;;;;;4.97;2.17;;;;;;;;;;5052988;28;20056;-63
2022/08/06 12:25:02;;;;;;;2.92;2.05;;;;;;;;;;5052508;28;20533;-63
2022/08/06 12:27:32;;;;;;;2.70;1.85;;;;;;;;;;5052786;28;20033;-63
2022/08/06 12:29:59;;;;;;;3.53;2.00;;;;;;;;;;5052935;28;20028;-63
2022/08/06 12:32:25;;;;;;;4.00;2.13;;;;;;;;;;5052437;28;20025;-64
2022/08/06 12:34:52;;;;;;;3.30;1.88;;;;;;;;;;5053999;28;20048;-64
2022/08/06 12:37:18;;;;;;;3.22;2.13;;;;;;;;;;5056684;28;20033;-64
2022/08/06 12:42:30;;;;;;;3.40;2.15;;;;;;;;;;5056782;28;20432;-64
2022/08/06 12:44:57;;;;;;;3.30;1.80;;;;;;;;;;5056053;28;20032;-64
2022/08/06 12:47:25;;;;;;;2.90;1.65;;;;;;;;;;5054976;28;20079;-63
2022/08/06 12:49:52;;;;;;;2.30;1.45;;;;;;;;;;5056398;28;20079;-63
2022/08/06 12:52:20;;;;;;;2.67;1.75;;;;;;;;;;5055995;28;20025;-64
2022/08/06 12:54:47;;;;;;;2.28;1.50;;;;;;;;;;5056279;28;20025;-63
2022/08/06 12:57:26;;;;;;;2.30;1.60;;;;;;;;;;5054998;28;20033;-64
2022/08/06 12:59:53;;;;;;;2.95;1.70;;;;;;;;;;5055833;28;20036;-64
2022/08/06 13:02:20;;;;;;;3.15;1.67;;;;;;;;;;5056490;28;20017;-64
2022/08/06 13:04:48;;;;;;;3.00;1.63;;;;;;;;;;5056170;28;20032;-63
2022/08/06 13:07:15;;;;;;;3.65;1.30;;;;;;;;;;5055688;28;20158;-63
2022/08/06 13:09:41;;;;;;;2.47;1.40;;;;;;;;;;5054750;28;20079;-64
2022/08/06 13:12:14;;;;;;;2.05;1.55;;;;;;;;;;5055952;28;20025;-64
2022/08/06 13:15:10;;;;;;;3.28;1.85;;;;;;;;;;5054339;28;20021;-64
2022/08/06 13:17:36;;;;;;;3.67;1.60;;;;;;;;;;5050246;28;20033;-64
2022/08/06 13:20:02;;;;;;;1.73;1.27;;;;;;;;;;5055496;28;20028;-64
2022/08/06 13:22:28;;;;;;;2.45;1.40;;;;;;;;;;5055858;28;20022;-64
2022/08/06 13:25:10;;;;;;;1.30;1.20;;;;;;;;;;5055813;28;20028;-64
2022/08/06 13:27:36;;;;;;;1.65;1.20;;;;;;;;;;5055230;28;20485;-64
2022/08/06 13:30:05;;;;;;;2.42;1.38;;;;;;;;;;5055880;28;20057;-63
2022/08/06 13:32:31;;;;;;;2.97;1.40;;;;;;;;;;5056154;28;20409;-64
2022/08/06 13:34:58;;;;;;;2.45;1.38;;;;;;;;;;5053910;28;20025;-64
2022/08/06 13:37:43;;;;;;;1.50;1.23;;;;;;;;;;5055547;28;20432;-64
2022/08/06 13:40:10;;;;;;;2.13;1.30;;;;;;;;;;5055605;28;20044;-64
2022/08/06 13:42:51;;;;;;;2.17;1.50;;;;;;;;;;5054981;28;20533;-64
2022/08/06 13:45:28;;;;;;;2.15;1.50;;;;;;;;;;5055359;28;20021;-64
2022/08/06 13:48:03;;;;;;;2.90;1.45;;;;;;;;;;5053366;28;20455;-64
2022/08/06 13:50:30;;;;;;;2.20;1.45;;;;;;;;;;5055881;28;20021;-65
2022/08/06 13:52:56;;;;;;;1.92;1.40;;;;;;;;;;5055202;28;20060;-64
2022/08/06 13:55:24;;;;;;;3.75;2.13;;;;;;;;;;5053571;28;20071;-66
2022/08/06 13:57:50;;;;;;;2.88;1.45;;;;;;;;;;5053944;28;20056;-65
2022/08/06 14:00:16;;;;;;;4.38;2.05;;;;;;;;;;5054227;28;20025;-66
2022/08/06 14:02:43;;;;;;;3.63;1.88;;;;;;;;;;5054955;28;20025;-65
2022/08/06 14:05:09;;;;;;;2.90;1.50;;;;;;;;;;5055637;28;20025;-64
2022/08/06 14:07:35;;;;;;;2.50;1.48;;;;;;;;;;5054023;28;20029;-64
2022/08/06 14:10:01;;;;;;;2.08;1.40;;;;;;;;;;5053782;28;20029;-65
2022/08/06 14:12:28;;;;;;;2.47;1.50;;;;;;;;;;5055177;28;20040;-64
2022/08/06 14:14:54;;;;;;;7.07;1.98;;;;;;;;;;5055608;28;20104;-64
2022/08/06 14:17:20;;;;;;;2.90;1.63;;;;;;;;;;5054700;28;20029;-63
2022/08/06 14:19:46;;;;;;;2.30;1.52;;;;;;;;;;5054707;28;20413;-64
2022/08/06 14:22:12;;;;;;;2.38;1.50;;;;;;;;;;5054917;28;20485;-64
2022/08/06 14:24:39;;;;;;;5.35;2.00;;;;;;;;;;5054195;28;20036;-64
2022/08/06 14:27:05;;;;;;;2.22;1.50;;;;;;;;;;5053199;28;20051;-64
2022/08/06 14:29:31;;;;;;;2.15;1.70;;;;;;;;;;5054777;28;20036;-64
2022/08/06 14:31:57;;;;;;;2.17;1.55;;;;;;;;;;5054177;28;20017;-63
2022/08/06 14:34:23;;;;;;;3.17;1.50;;;;;;;;;;5054455;28;20037;-63
2022/08/06 14:36:49;;;;;;;3.03;1.77;;;;;;;;;;5054396;28;20021;-63
2022/08/06 14:39:16;;;;;;;3.10;1.58;;;;;;;;;;5053952;28;20440;-66
2022/08/06 14:47:11;;;;;;;1.73;1.55;;;;;;;;;;5054019;28;20520;-64
2022/08/06 14:49:39;;;;;;;4.82;1.55;;;;;;;;;;5054199;28;20092;-64
2022/08/06 14:52:06;;;;;;;2.20;1.20;;;;;;;;;;5053931;28;20450;-64
2022/08/06 14:54:32;;;;;;;1.83;1.10;;;;;;;;;;5052786;28;20021;-65
2022/08/06 14:56:59;;;;;;;1.60;1.30;;;;;;;;;;5052274;28;20131;-64
2022/08/06 14:59:26;;;;;;;2.15;1.17;;;;;;;;;;5053527;28;20025;-64
2022/08/06 15:01:52;;;;;;;3.33;1.38;;;;;;;;;;5053936;28;20462;-64
2022/08/06 15:04:19;;;;;;;2.28;1.50;;;;;;;;;;5054033;28;20024;-64
2022/08/06 15:06:46;;;;;;;1.88;1.30;;;;;;;;;;5053377;28;20017;-64
2022/08/06 15:09:12;;;;;;;2.10;1.70;;;;;;;;;;5053804;28;20035;-64
2022/08/06 15:11:38;;;;;;;2.00;1.33;;;;;;;;;;5054083;28;20122;-63
2022/08/06 15:14:05;;;;;;;2.78;1.58;;;;;;;;;;5053331;28;20087;-63
2022/08/06 15:16:31;;;;;;;7.07;2.42;;;;;;;;;;5053694;28;20068;-63
2022/08/06 15:18:58;;;;;;;4.68;1.73;;;;;;;;;;5052335;28;20074;-63
2022/08/06 15:21:24;;;;;;;2.65;1.67;;;;;;;;;;5053277;28;20024;-63
2022/08/06 15:23:51;;;;;;;2.25;1.25;;;;;;;;;;5053647;28;20096;-63
2022/08/06 15:26:17;;;;;;;4.22;1.40;;;;;;;;;;5052160;28;20393;-63
2022/08/06 15:28:43;;;;;;;3.08;1.80;;;;;;;;;;5053447;28;20032;-63
2022/08/06 15:31:09;;;;;;;2.05;1.50;;;;;;;;;;5053517;28;20052;-63
2022/08/06 15:33:35;;;;;;;2.78;1.77;;;;;;;;;;5053350;28;20024;-63
2022/08/06 15:36:02;;;;;;;2.33;1.60;;;;;;;;;;5053420;28;20021;-63
2022/08/06 15:38:28;;;;;;;3.60;1.50;;;;;;;;;;5053347;28;20492;-64
2022/08/06 15:40:55;;;;;;;2.70;1.90;;;;;;;;;;5053040;28;20040;-63
2022/08/06 15:43:22;;;;;;;3.70;1.80;;;;;;;;;;5052105;28;20032;-63
2022/08/06 15:45:48;;;;;;;2.10;1.48;;;;;;;;;;5052035;28;20028;-64
2022/08/06 15:48:14;;;;;;;2.00;1.40;;;;;;;;;;5051362;28;20045;-62
2022/08/06 15:50:44;;;;;;;4.03;2.10;;;;;;;;;;5052109;28;20075;-62
2022/08/06 15:53:10;;;;;;;4.25;1.85;;;;;;;;;;5053266;28;20025;-64
2022/08/06 15:55:37;;;;;;;4.20;1.92;;;;;;;;;;5052942;28;20017;-64
2022/08/06 15:58:03;;;;;;;4.80;2.20;;;;;;;;;;5053238;28;20032;-64
2022/08/06 16:00:29;;;;;;;3.42;2.10;;;;;;;;;;5053183;28;20032;-64
2022/08/06 16:02:55;;;;;;;5.05;1.85;;;;;;;;;;5052829;28;20029;-62
2022/08/06 16:05:21;;;;;;;4.03;2.35;;;;;;;;;;5053139;28;20021;-64
2022/08/06 16:07:48;;;;;;;2.85;1.60;;;;;;;;;;5052039;28;20075;-64
2022/08/06 16:10:15;;;;;;;3.50;1.83;;;;;;;;;;5055981;28;20033;-64
2022/08/06 16:12:41;;;;;;;2.25;1.60;;;;;;;;;;5057225;28;20032;-65
2022/08/06 16:15:08;;;;;;;2.55;1.60;;;;;;;;;;5057155;28;20112;-64
2022/08/06 16:17:34;;;;;;;3.20;1.85;;;;;;;;;;5056676;28;20161;-64
2022/08/06 16:20:00;;;;;;;3.88;2.25;;;;;;;;;;5057007;28;20021;-65
2022/08/06 16:22:27;;;;;;;3.63;2.03;;;;;;;;;;5056853;28;20029;-64
2022/08/06 16:24:53;;;;;;;3.38;1.80;;;;;;;;;;5056859;28;20461;-65
2022/08/06 16:27:19;;;;;;;2.08;1.45;;;;;;;;;;5057030;28;20058;-64
2022/08/06 16:29:46;;;;;;;3.63;1.83;;;;;;;;;;5056477;28;20385;-64
2022/08/06 16:32:12;;;;;;;5.28;1.80;;;;;;;;;;5056779;28;20021;-63
2022/08/06 16:34:39;;;;;;;2.78;1.90;;;;;;;;;;5055455;28;20378;-65
2022/08/06 16:37:05;;;;;;;3.22;1.90;;;;;;;;;;5056406;28;20369;-64
2022/08/06 16:39:31;;;;;;;3.03;2.10;;;;;;;;;;5056666;28;20029;-63